Time;durP1;ratioP1;P1;durP2;ratioP2;P2;SDS_P1;SDS_P2;PMS_P1;PMS_P2;Temp;Humidity;BMP_temperature;BMP_pressure;BME280_temperature;BME280_humidity;BME280_pressure;Samples;Min_cycle;Max_cycle;Signal;HPM_P1;HPM_P2
2022/11/14 00:01:30;;;;;;;4.00;2.80;;;;;;;1.53;82.77;96691.00;1719293;83;21507;-71
2022/11/14 00:04:15;;;;;;;3.20;2.50;;;;;;;1.61;82.88;96689.53;1719529;83;20994;-71
2022/11/14 00:07:00;;;;;;;3.00;2.17;;;;;;;1.65;82.70;96695.32;1719396;83;21013;-71
2022/11/14 00:09:45;;;;;;;3.13;2.10;;;;;;;1.65;82.20;96689.24;1719337;83;21017;-72
2022/11/14 00:12:30;;;;;;;3.93;2.50;;;;;;;1.62;82.37;96685.24;1719254;83;21551;-72
2022/11/14 00:15:16;;;;;;;4.03;2.40;;;;;;;1.56;82.02;96684.59;1719277;83;21076;-72
2022/11/14 00:18:00;;;;;;;7.47;4.73;;;;;;;1.39;81.93;96684.05;1719226;83;21499;-71
2022/11/14 00:20:51;;;;;;;7.93;4.97;;;;;;;1.27;81.51;96689.70;1719430;83;20997;-71
2022/11/14 00:23:36;;;;;;;3.80;2.90;;;;;;;1.10;82.55;96689.52;1719178;83;20998;-71
2022/11/14 00:26:21;;;;;;;4.20;2.30;;;;;;;1.01;82.33;96692.69;1719372;83;20998;-72
2022/11/14 00:29:06;;;;;;;3.87;2.33;;;;;;;1.02;82.31;96689.67;1719212;83;21030;-72
2022/11/14 00:31:51;;;;;;;5.53;2.40;;;;;;;1.00;82.72;96690.91;1719190;83;21001;-71
2022/11/14 00:34:36;;;;;;;3.63;2.27;;;;;;;1.11;83.15;96691.70;1719398;83;21017;-71
2022/11/14 00:37:21;;;;;;;3.07;2.30;;;;;;;1.18;83.19;96693.27;1719244;83;21013;-71
2022/11/14 00:40:07;;;;;;;9.90;4.80;;;;;;;1.13;82.73;96691.34;1719470;83;21052;-71
2022/11/14 00:42:53;;;;;;;16.03;10.00;;;;;;;1.02;83.01;96692.27;1719301;83;21033;-71
2022/11/14 00:45:38;;;;;;;20.37;11.70;;;;;;;0.89;83.08;96696.14;1719321;83;21017;-71
2022/11/14 00:48:23;;;;;;;17.50;11.10;;;;;;;0.81;83.56;96697.16;1719316;82;21020;-71
2022/11/14 00:51:09;;;;;;;2.97;1.80;;;;;;;0.89;83.93;96700.04;1719506;83;21045;-71
2022/11/14 00:53:53;;;;;;;2.83;1.97;;;;;;;1.02;84.09;96698.77;1719285;83;21022;-71
2022/11/14 00:56:40;;;;;;;4.03;2.00;;;;;;;1.14;84.05;96700.93;1704622;83;28210;-71
2022/11/14 00:59:25;;;;;;;2.37;1.60;;;;;;;1.27;83.04;96692.72;1719003;83;20994;-73
2022/11/14 01:02:09;;;;;;;1.80;1.50;;;;;;;1.10;82.33;96694.72;1719511;83;21060;-72
2022/11/14 01:04:54;;;;;;;5.23;3.23;;;;;;;0.94;82.32;96695.02;1719352;83;21061;-73
2022/11/14 01:07:39;;;;;;;3.53;2.07;;;;;;;0.91;83.88;96691.89;1719573;83;21546;-72
2022/11/14 01:10:25;;;;;;;2.57;2.00;;;;;;;0.92;83.44;96686.27;1719238;83;21017;-72
2022/11/14 01:13:11;;;;;;;3.40;1.60;;;;;;;1.00;84.02;96683.52;1719413;83;21514;-72
2022/11/14 01:16:00;;;;;;;2.33;1.77;;;;;;;0.98;83.51;96687.78;1719614;82;21025;-73
2022/11/14 01:18:46;;;;;;;3.17;1.80;;;;;;;0.81;83.14;96684.17;1732148;83;21017;-72
2022/11/14 01:21:30;;;;;;;2.70;1.70;;;;;;;0.86;84.05;96681.75;1732148;83;21021;-73
2022/11/14 01:24:16;;;;;;;2.60;1.67;;;;;;;0.93;84.06;96675.91;1732218;83;21025;-72
2022/11/14 01:27:01;;;;;;;5.03;2.97;;;;;;;0.95;83.77;96668.19;1732004;83;21034;-73
2022/11/14 01:29:47;;;;;;;2.27;1.50;;;;;;;0.97;83.63;96663.94;1732169;83;20993;-73
2022/11/14 01:32:32;;;;;;;6.03;1.60;;;;;;;0.93;83.06;96665.94;1732111;83;21124;-73
2022/11/14 01:35:17;;;;;;;4.17;2.43;;;;;;;0.84;82.83;96668.69;1732322;83;21013;-72
2022/11/14 01:38:04;;;;;;;3.40;1.80;;;;;;;0.76;83.24;96669.25;1732320;83;21031;-72
2022/11/14 01:40:49;;;;;;;3.40;1.50;;;;;;;0.66;83.61;96668.45;1732300;83;21495;-72
2022/11/14 01:43:38;;;;;;;4.30;1.20;;;;;;;0.72;84.40;96667.36;1732164;83;20997;-72
2022/11/14 01:46:31;;;;;;;1.97;1.40;;;;;;;0.83;84.40;96672.52;1732230;83;21017;-72
2022/11/14 01:49:24;;;;;;;2.70;1.60;;;;;;;0.93;84.85;96662.92;1732141;83;21012;-72
2022/11/14 01:52:20;;;;;;;1.80;1.47;;;;;;;0.91;84.06;96672.80;1732452;83;21550;-72
2022/11/14 01:55:08;;;;;;;4.73;1.53;;;;;;;0.85;83.80;96670.86;1732087;83;21024;-72
2022/11/14 01:57:54;;;;;;;1.83;1.20;;;;;;;0.80;83.97;96677.61;1732397;83;21021;-72
2022/11/14 02:00:40;;;;;;;2.43;1.40;;;;;;;0.74;83.75;96671.78;1732039;83;21036;-72
2022/11/14 02:03:25;;;;;;;2.07;1.43;;;;;;;0.75;84.34;96677.44;1732082;83;21021;-72
2022/11/14 02:06:14;;;;;;;4.47;2.17;;;;;;;0.78;84.47;96678.87;1732139;83;21020;-72
2022/11/14 02:09:03;;;;;;;2.90;1.50;;;;;;;0.88;84.45;96679.18;1732118;83;21024;-72
2022/11/14 02:11:51;;;;;;;1.57;1.30;;;;;;;0.82;83.92;96679.86;1732217;83;21048;-72
2022/11/14 02:14:37;;;;;;;1.80;1.53;;;;;;;0.83;83.90;96673.43;1732052;83;21036;-72
2022/11/14 02:17:24;;;;;;;1.87;1.50;;;;;;;0.78;83.72;96673.67;1732032;82;21032;-72
2022/11/14 02:20:20;;;;;;;2.20;1.40;;;;;;;0.71;83.67;96671.68;1732149;83;21048;-72
2022/11/14 02:23:06;;;;;;;2.67;1.60;;;;;;;0.72;83.78;96672.55;1732082;83;21081;-72
2022/11/14 02:25:51;;;;;;;3.33;1.77;;;;;;;0.57;83.54;96683.26;1732254;83;20993;-72
2022/11/14 02:28:36;;;;;;;6.90;3.77;;;;;;;0.46;83.89;96688.48;1732170;83;21056;-72
2022/11/14 02:31:22;;;;;;;4.57;3.07;;;;;;;0.38;83.62;96677.80;1732015;83;21040;-72
2022/11/14 02:34:07;;;;;;;4.83;3.50;;;;;;;0.32;83.42;96684.04;1732143;83;21494;-72
2022/11/14 02:36:52;;;;;;;4.63;2.90;;;;;;;0.27;84.10;96678.66;1732400;83;21021;-73
2022/11/14 02:39:54;;;;;;;5.87;3.40;;;;;;;0.17;83.57;96683.03;1701655;84;21145;-73
2022/11/14 02:42:40;;;;;;;2.10;1.70;;;;;;;0.29;84.70;96676.14;1701723;84;21120;-73
2022/11/14 02:45:26;;;;;;;2.20;1.20;;;;;;;0.34;84.51;96675.48;1701678;84;21010;-73
2022/11/14 02:48:11;;;;;;;2.07;1.30;;;;;;;0.45;84.44;96673.70;1701952;84;21018;-73
2022/11/14 02:50:56;;;;;;;2.50;1.57;;;;;;;0.44;83.97;96665.04;1701475;84;21108;-72
2022/11/14 02:53:41;;;;;;;1.40;1.13;;;;;;;0.45;83.87;96671.11;1701840;84;21021;-72
2022/11/14 02:56:27;;;;;;;5.50;3.57;;;;;;;0.41;83.97;96669.70;1701845;84;21038;-72
2022/11/14 02:59:12;;;;;;;4.67;2.83;;;;;;;0.43;83.71;96669.35;1701656;84;21576;-72
2022/11/14 03:01:57;;;;;;;3.10;2.23;;;;;;;0.30;82.60;96672.70;1701849;84;21013;-72
2022/11/14 03:04:42;;;;;;;2.90;1.70;;;;;;;0.19;83.73;96667.11;1701751;84;21496;-72
2022/11/14 03:07:27;;;;;;;1.13;1.03;;;;;;;0.26;84.39;96667.83;1702083;84;21018;-72
2022/11/14 03:10:12;;;;;;;1.73;1.20;;;;;;;0.31;83.91;96657.63;1701818;84;21480;-72
2022/11/14 03:12:58;;;;;;;2.60;1.57;;;;;;;0.34;84.05;96653.84;1701681;84;21019;-72
2022/11/14 03:15:42;;;;;;;2.97;1.17;;;;;;;0.31;83.39;96657.20;1701471;84;21073;-72
2022/11/14 03:18:28;;;;;;;2.80;1.00;;;;;;;0.24;83.26;96666.88;1701751;84;21485;-72
2022/11/14 03:21:17;;;;;;;3.87;2.40;;;;;;;0.29;84.24;96665.34;1701821;84;21046;-72
2022/11/14 03:24:02;;;;;;;4.30;2.10;;;;;;;0.25;83.79;96669.05;1701572;84;21536;-72
2022/11/14 03:26:47;;;;;;;1.80;1.50;;;;;;;0.12;83.44;96662.51;1701740;84;21014;-73
2022/11/14 03:29:33;;;;;;;2.13;1.63;;;;;;;0.16;83.98;96661.81;1701597;84;21092;-72
2022/11/14 03:32:18;;;;;;;2.00;1.40;;;;;;;0.19;84.29;96656.73;1701714;84;21068;-74
2022/11/14 03:35:03;;;;;;;3.83;1.10;;;;;;;0.28;84.51;96643.20;1701572;84;21500;-72
2022/11/14 03:37:48;;;;;;;1.70;1.27;;;;;;;0.29;84.10;96643.70;1701765;83;21483;-72
2022/11/14 03:40:34;;;;;;;1.70;1.50;;;;;;;0.14;83.94;96654.37;1695985;85;21074;-72
2022/11/14 03:43:21;;;;;;;3.93;1.97;;;;;;;0.14;84.78;96649.19;1696264;85;21388;-72
2022/11/14 03:46:06;;;;;;;6.53;3.53;;;;;;;0.04;84.53;96646.64;1696030;85;21030;-72
2022/11/14 03:48:51;;;;;;;2.07;1.40;;;;;;;-0.03;83.93;96643.33;1696229;85;21026;-72
2022/11/14 03:51:36;;;;;;;2.93;1.63;;;;;;;0.00;84.33;96642.18;1695999;85;21576;-72
2022/11/14 03:54:20;;;;;;;3.37;1.10;;;;;;;0.11;84.64;96637.39;1696043;85;21038;-71
2022/11/14 03:57:05;;;;;;;1.50;1.30;;;;;;;0.19;84.80;96635.97;1696154;85;21034;-71
2022/11/14 03:59:50;;;;;;;1.63;1.17;;;;;;;0.18;84.66;96643.30;1696341;85;21031;-72
2022/11/14 04:02:36;;;;;;;1.80;1.23;;;;;;;0.21;84.37;96639.52;1695976;85;21027;-71
2022/11/14 04:05:22;;;;;;;3.43;1.83;;;;;;;0.19;84.32;96630.36;1696235;85;21512;-72
2022/11/14 04:08:07;;;;;;;3.20;1.80;;;;;;;0.26;84.76;96625.42;1695967;85;21026;-71
2022/11/14 04:10:52;;;;;;;1.90;1.20;;;;;;;0.34;85.05;96626.16;1696218;85;21034;-71
2022/11/14 04:13:37;;;;;;;2.83;1.77;;;;;;;0.38;84.65;96625.46;1696035;85;21035;-71
2022/11/14 04:16:22;;;;;;;3.10;1.47;;;;;;;0.47;84.51;96620.12;1696057;85;21027;-71
2022/11/14 04:19:08;;;;;;;1.83;1.43;;;;;;;0.52;84.39;96627.67;1696019;85;21035;-73
2022/11/14 04:21:53;;;;;;;1.90;1.30;;;;;;;0.44;83.66;96623.50;1696172;85;21079;-71
2022/11/14 04:24:38;;;;;;;7.57;2.43;;;;;;;0.39;83.98;96615.95;1696020;85;21532;-71
2022/11/14 04:27:23;;;;;;;5.03;2.77;;;;;;;0.35;83.77;96617.56;1696231;85;21026;-71
2022/11/14 04:30:09;;;;;;;8.90;4.30;;;;;;;0.20;82.65;96616.96;1696077;85;21034;-72
2022/11/14 04:32:53;;;;;;;21.07;14.87;;;;;;;0.02;83.08;96626.23;1696223;85;21022;-71
2022/11/14 04:35:38;;;;;;;10.73;7.00;;;;;;;-0.07;83.62;96616.82;1695777;85;21086;-72
2022/11/14 04:38:23;;;;;;;10.00;7.57;;;;;;;-0.12;84.40;96623.13;1699573;82;21023;-72
2022/11/14 04:41:09;;;;;;;3.33;2.10;;;;;;;-0.07;84.42;96620.29;1725424;83;21037;-73
2022/11/14 04:43:54;;;;;;;2.50;1.40;;;;;;;0.03;84.76;96615.47;1725345;83;21520;-74
2022/11/14 04:46:39;;;;;;;1.77;1.30;;;;;;;0.13;84.79;96602.02;1725343;83;21030;-74
2022/11/14 04:49:24;;;;;;;2.47;1.40;;;;;;;0.18;84.23;96614.33;1725406;83;21026;-74
2022/11/14 04:52:09;;;;;;;7.20;3.70;;;;;;;0.20;83.91;96614.36;1725472;83;21018;-74
2022/11/14 04:54:54;;;;;;;2.20;1.10;;;;;;;0.10;83.78;96616.14;1725647;83;21009;-74
2022/11/14 04:57:39;;;;;;;2.37;1.43;;;;;;;0.03;83.78;96620.23;1725190;83;21030;-74
2022/11/14 05:00:26;;;;;;;5.27;1.53;;;;;;;0.12;84.45;96619.69;1725656;83;21002;-74
2022/11/14 05:03:11;;;;;;;3.57;2.10;;;;;;;0.21;84.65;96620.05;1725413;83;21061;-74
2022/11/14 05:06:00;;;;;;;9.17;7.37;;;;;;;0.20;83.93;96620.47;1725592;83;21022;-73
2022/11/14 05:08:45;;;;;;;3.93;1.50;;;;;;;0.15;83.57;96616.81;1725475;83;21003;-74
2022/11/14 05:11:30;;;;;;;2.33;1.20;;;;;;;0.19;84.25;96617.80;1725625;83;21520;-76
2022/11/14 05:14:15;;;;;;;1.43;1.20;;;;;;;0.29;84.60;96616.02;1725494;83;21490;-74
2022/11/14 05:17:00;;;;;;;4.03;1.93;;;;;;;0.41;84.80;96611.28;1725483;83;21073;-73
2022/11/14 05:19:45;;;;;;;7.90;3.97;;;;;;;0.35;83.44;96607.56;1725190;83;21050;-74
2022/11/14 05:22:30;;;;;;;4.50;2.37;;;;;;;0.30;83.84;96609.98;1725615;83;21030;-74
2022/11/14 05:25:15;;;;;;;2.10;1.30;;;;;;;0.34;84.04;96615.78;1725350;83;21022;-74
2022/11/14 05:28:01;;;;;;;2.70;1.00;;;;;;;0.32;83.99;96621.73;1725360;83;21109;-74
2022/11/14 05:30:46;;;;;;;1.40;1.30;;;;;;;0.28;83.81;96616.86;1725272;83;21634;-74
2022/11/14 05:33:32;;;;;;;2.00;1.30;;;;;;;0.23;83.51;96623.98;1725413;83;21069;-74
2022/11/14 05:36:17;;;;;;;4.33;2.40;;;;;;;0.21;83.75;96621.34;1725527;83;21018;-74
2022/11/14 05:39:02;;;;;;;2.20;1.60;;;;;;;0.11;83.23;96622.70;1717182;83;21537;-74
2022/11/14 05:41:48;;;;;;;2.87;1.67;;;;;;;0.11;83.76;96618.81;1696070;85;21034;-74
2022/11/14 05:44:33;;;;;;;2.40;1.17;;;;;;;0.17;83.99;96623.34;1695966;85;21011;-74
2022/11/14 05:47:18;;;;;;;1.97;1.23;;;;;;;0.11;84.02;96616.22;1695813;85;21090;-74
2022/11/14 05:50:04;;;;;;;3.23;1.90;;;;;;;0.12;84.49;96614.50;1695954;85;21031;-74
2022/11/14 05:52:50;;;;;;;7.70;4.87;;;;;;;0.18;84.67;96619.52;1695949;85;21061;-73
2022/11/14 05:55:35;;;;;;;5.47;2.90;;;;;;;0.23;84.67;96619.70;1696057;85;21524;-76
2022/11/14 05:58:21;;;;;;;2.00;1.30;;;;;;;0.29;84.35;96616.44;1696190;85;21046;-71
2022/11/14 06:01:13;;;;;;;8.90;5.20;;;;;;;0.29;84.36;96617.31;1695794;85;21047;-69
2022/11/14 06:03:58;;;;;;;18.37;12.00;;;;;;;0.30;84.06;96611.28;1696197;84;21010;-72
2022/11/14 06:06:43;;;;;;;6.63;3.73;;;;;;;0.23;82.86;96609.31;1695906;85;21485;-71
2022/11/14 06:09:27;;;;;;;2.93;1.60;;;;;;;0.25;83.94;96610.23;1695953;85;21030;-71
2022/11/14 06:12:13;;;;;;;4.60;1.70;;;;;;;0.39;84.63;96609.46;1696062;85;21074;-82
2022/11/14 06:14:57;;;;;;;3.87;2.37;;;;;;;0.38;84.05;96603.81;1696049;85;21029;-67
2022/11/14 06:17:43;;;;;;;4.80;3.00;;;;;;;0.34;84.48;96607.98;1695993;85;21039;-69
2022/11/14 06:20:28;;;;;;;11.47;6.80;;;;;;;0.48;84.95;96614.09;1696134;85;20994;-71
2022/11/14 06:23:13;;;;;;;3.30;2.47;;;;;;;0.50;84.38;96604.23;1696117;85;21027;-70
2022/11/14 06:26:00;;;;;;;8.30;5.50;;;;;;;0.54;84.72;96603.95;1696108;85;21039;-77
2022/11/14 06:28:46;;;;;;;14.03;7.93;;;;;;;0.67;84.94;96602.67;1696046;85;21030;-69
2022/11/14 06:31:31;;;;;;;3.13;2.57;;;;;;;0.79;84.86;96604.41;1694668;85;21670;-66
2022/11/14 06:34:16;;;;;;;2.90;1.60;;;;;;;0.85;84.64;96602.89;1695443;85;21548;-71
2022/11/14 06:37:01;;;;;;;2.37;1.63;;;;;;;0.98;84.79;96604.23;1695185;85;21141;-69
2022/11/14 06:39:46;;;;;;;3.03;1.27;;;;;;;1.12;84.84;96604.69;1707613;82;21042;-69
2022/11/14 06:42:31;;;;;;;9.43;4.77;;;;;;;1.17;84.07;96596.63;1724482;83;21061;-70
2022/11/14 06:45:16;;;;;;;3.77;1.60;;;;;;;1.15;83.86;96600.01;1724875;83;21073;-69
2022/11/14 06:48:02;;;;;;;2.73;1.70;;;;;;;1.11;83.75;96604.63;1724963;83;21093;-71
2022/11/14 06:50:58;;;;;;;10.60;6.13;;;;;;;1.22;84.81;96606.77;1724914;83;21556;-71
2022/11/14 06:53:44;;;;;;;2.23;1.80;;;;;;;1.44;85.45;96602.29;1724678;83;21560;-68
2022/11/14 06:56:28;;;;;;;3.07;1.70;;;;;;;1.52;84.25;96603.41;1725047;83;21595;-72
2022/11/14 06:59:14;;;;;;;5.43;3.00;;;;;;;1.61;84.56;96601.52;1725595;83;21013;-69
2022/11/14 07:01:59;;;;;;;5.93;2.33;;;;;;;1.72;84.81;96598.43;1725405;83;21030;-68
2022/11/14 07:04:44;;;;;;;3.20;1.90;;;;;;;1.68;83.58;96595.25;1725529;83;21062;-69
2022/11/14 07:07:30;;;;;;;4.60;2.67;;;;;;;1.67;83.89;96596.52;1725200;83;21587;-76
2022/11/14 07:10:15;;;;;;;8.03;4.80;;;;;;;1.64;83.88;96596.02;1724832;83;21025;-74
2022/11/14 07:13:00;;;;;;;5.30;3.67;;;;;;;1.79;84.66;96598.61;1725162;83;21105;-71
2022/11/14 07:15:50;;;;;;;8.73;5.10;;;;;;;1.91;84.78;96586.86;1725484;83;21512;-77
2022/11/14 07:18:36;;;;;;;10.73;6.57;;;;;;;1.87;84.17;96584.14;1725324;83;21034;-72
2022/11/14 07:21:21;;;;;;;13.37;6.80;;;;;;;1.83;84.54;96583.14;1725476;83;21033;-69
2022/11/14 07:24:07;;;;;;;11.20;6.20;;;;;;;2.01;85.21;96576.31;1725785;83;20987;-68
2022/11/14 07:26:52;;;;;;;12.90;6.93;;;;;;;2.16;85.73;96580.67;1725464;83;21046;-70
2022/11/14 07:29:37;;;;;;;11.10;6.23;;;;;;;2.31;85.67;96569.83;1725560;83;20986;-72
2022/11/14 07:32:22;;;;;;;10.33;7.20;;;;;;;2.40;85.07;96573.56;1725100;83;21587;-72
2022/11/14 07:35:08;;;;;;;11.63;6.97;;;;;;;2.44;84.82;96570.18;1724649;83;21069;-74
2022/11/14 07:37:53;;;;;;;11.67;7.50;;;;;;;2.47;85.46;96568.96;1725454;83;21033;-76
2022/11/14 07:40:38;;;;;;;10.33;6.40;;;;;;;2.51;84.92;96571.70;1711323;83;21018;-67
2022/11/14 07:43:24;;;;;;;9.73;6.57;;;;;;;2.51;85.13;96569.09;1735439;83;21587;-76
2022/11/14 07:46:13;;;;;;;11.93;6.77;;;;;;;2.60;85.45;96568.48;1735533;83;21543;-74
2022/11/14 07:48:58;;;;;;;13.27;8.30;;;;;;;2.76;85.92;96566.75;1735395;83;21022;-68
2022/11/14 07:51:43;;;;;;;13.80;8.40;;;;;;;2.99;86.42;96559.53;1735517;83;21053;-78
2022/11/14 07:54:28;;;;;;;12.10;8.40;;;;;;;3.20;86.07;96564.45;1735540;83;21515;-69
2022/11/14 07:57:13;;;;;;;13.00;8.20;;;;;;;3.39;85.68;96562.28;1735852;83;21013;-71
2022/11/14 07:59:58;;;;;;;12.63;8.20;;;;;;;3.58;85.55;96552.77;1735586;83;21566;-75
2022/11/14 08:02:45;;;;;;;12.83;7.47;;;;;;;3.77;85.67;96545.36;1735704;83;20987;-69
2022/11/14 08:05:30;;;;;;;11.80;7.93;;;;;;;4.06;85.79;96552.12;1735627;83;21045;-70
2022/11/14 08:08:15;;;;;;;15.07;9.40;;;;;;;4.35;84.79;96549.23;1735772;83;21539;-78
2022/11/14 08:11:01;;;;;;;14.73;9.50;;;;;;;4.50;84.24;96545.63;1735549;83;21033;-68
2022/11/14 08:13:46;;;;;;;13.33;9.30;;;;;;;4.70;83.96;96547.33;1735727;83;21017;-72
2022/11/14 08:16:32;;;;;;;13.97;8.90;;;;;;;4.87;83.90;96538.94;1735514;83;21515;-72
2022/11/14 08:19:17;;;;;;;11.40;8.60;;;;;;;5.05;83.76;96541.88;1735564;83;21087;-71
2022/11/14 08:22:02;;;;;;;13.13;9.60;;;;;;;5.23;83.05;96539.14;1735718;83;21057;-68
2022/11/14 08:24:47;;;;;;;14.43;8.23;;;;;;;5.32;82.91;96529.72;1735554;83;21002;-71
2022/11/14 08:27:32;;;;;;;11.60;7.83;;;;;;;5.45;82.81;96526.00;1734871;83;21056;-70
2022/11/14 08:30:17;;;;;;;14.03;9.10;;;;;;;5.61;81.65;96526.24;1734908;83;21069;-72
2022/11/14 08:33:05;;;;;;;15.27;8.77;;;;;;;5.77;81.73;96525.16;1734936;83;21009;-71
2022/11/14 08:35:50;;;;;;;11.93;7.33;;;;;;;5.86;81.51;96519.63;1734812;83;21053;-69
2022/11/14 08:38:35;;;;;;;11.93;7.23;;;;;;;6.01;80.62;96516.83;1735316;83;21500;-69
2022/11/14 08:41:20;;;;;;;9.10;6.23;;;;;;;6.25;81.15;96518.47;1726704;83;21074;-77
2022/11/14 08:44:05;;;;;;;12.87;7.80;;;;;;;6.52;81.16;96517.48;1724756;83;21374;-73
2022/11/14 08:46:51;;;;;;;11.67;7.13;;;;;;;6.78;80.64;96518.67;1725148;83;21018;-70
2022/11/14 08:49:35;;;;;;;9.10;5.97;;;;;;;6.96;79.95;96511.42;1725455;83;21531;-73
2022/11/14 08:52:21;;;;;;;7.67;4.77;;;;;;;7.09;79.44;96510.67;1725387;83;21042;-77
2022/11/14 08:55:07;;;;;;;5.90;4.60;;;;;;;7.26;79.40;96505.59;1725564;83;21523;-79
2022/11/14 08:57:53;;;;;;;4.63;3.43;;;;;;;7.43;79.47;96504.83;1725402;83;21072;-78
2022/11/14 09:00:38;;;;;;;6.97;4.87;;;;;;;7.64;78.97;96502.83;1725476;83;21022;-72
2022/11/14 09:03:23;;;;;;;6.00;4.17;;;;;;;7.82;77.98;96494.20;1725234;83;20998;-75
2022/11/14 09:06:08;;;;;;;6.37;3.70;;;;;;;7.98;77.15;96485.52;1725970;83;21061;-71
2022/11/14 09:08:54;;;;;;;8.40;3.90;;;;;;;8.16;76.77;96486.05;1725248;83;21006;-74
2022/11/14 09:11:39;;;;;;;7.10;4.27;;;;;;;8.36;76.97;96478.26;1725613;83;21030;-75
2022/11/14 09:14:24;;;;;;;5.57;4.53;;;;;;;8.53;76.92;96471.34;1725557;83;21030;-70
2022/11/14 09:17:10;;;;;;;4.60;2.80;;;;;;;8.74;76.59;96474.47;1725436;83;21026;-70
2022/11/14 09:19:55;;;;;;;4.20;2.73;;;;;;;8.88;76.37;96467.50;1725543;83;21066;-71
2022/11/14 09:22:41;;;;;;;3.70;2.60;;;;;;;9.14;74.85;96464.47;1725384;83;21515;-71
2022/11/14 09:25:28;;;;;;;3.17;2.53;;;;;;;9.41;73.74;96453.94;1725279;83;20991;-69
2022/11/14 09:28:13;;;;;;;4.97;3.33;;;;;;;9.69;72.33;96456.11;1725353;83;21013;-74
2022/11/14 09:31:04;;;;;;;5.17;3.50;;;;;;;9.95;72.93;96442.00;1725288;83;21022;-71
2022/11/14 09:33:49;;;;;;;4.80;3.33;;;;;;;10.16;71.44;96435.36;1725314;83;21066;-71
2022/11/14 09:36:34;;;;;;;5.47;3.57;;;;;;;10.38;68.22;96431.33;1725281;83;21017;-70
2022/11/14 09:39:20;;;;;;;4.00;3.23;;;;;;;10.49;68.49;96420.30;1725070;83;21520;-74
2022/11/14 09:42:30;;;;;;;4.63;3.20;;;;;;;10.64;68.29;96425.08;1697126;83;21030;-75
2022/11/14 09:45:16;;;;;;;5.60;3.30;;;;;;;10.85;68.60;96418.78;1695831;85;21070;-71
2022/11/14 09:48:15;;;;;;;3.92;2.75;;;;;;;11.14;67.67;96414.62;1695774;85;21083;-71
2022/11/14 09:51:08;;;;;;;6.15;3.90;;;;;;;11.56;66.04;96416.00;1695007;85;21082;-69
2022/11/14 09:54:07;;;;;;;5.75;3.47;;;;;;;12.10;64.90;96407.11;1695774;85;20995;-68
2022/11/14 09:56:53;;;;;;;5.60;4.03;;;;;;;12.66;61.47;96403.31;1696327;85;21019;-67
2022/11/14 09:59:39;;;;;;;6.28;4.03;;;;;;;13.12;61.06;96396.46;1695873;85;21034;-72
2022/11/14 10:02:35;;;;;;;5.53;4.55;;;;;;;13.47;60.48;96395.92;1696071;85;21034;-70
2022/11/14 10:05:31;;;;;;;8.13;5.08;;;;;;;13.89;62.10;96392.55;1695951;85;21560;-73
2022/11/14 10:08:40;;;;;;;7.03;6.00;;;;;;;14.36;58.56;96390.70;1695457;85;21011;-67
2022/11/14 10:11:51;;;;;;;6.80;5.87;;;;;;;14.83;58.29;96390.17;1695954;85;21022;-70
2022/11/14 10:15:27;;;;;;;7.47;5.65;;;;;;;15.12;55.32;96384.20;1695957;85;21042;-70
2022/11/14 10:18:51;;;;;;;7.97;6.67;;;;;;;15.47;55.92;96384.67;1696228;85;21513;-73
2022/11/14 10:21:47;;;;;;;7.83;7.03;;;;;;;15.87;50.36;96383.64;1697977;84;21026;-73
2022/11/14 10:24:43;;;;;;;9.25;6.87;;;;;;;16.25;49.95;96391.03;1696487;84;21071;-70
2022/11/14 10:27:39;;;;;;;7.20;6.12;;;;;;;16.42;50.32;96382.10;1695827;85;21134;-72
2022/11/14 10:30:33;;;;;;;7.15;6.45;;;;;;;16.73;49.64;96378.55;1692256;85;21030;-71
2022/11/14 10:33:57;;;;;;;10.55;6.62;;;;;;;16.97;49.08;96376.94;1695931;85;21010;-71
2022/11/14 10:37:03;;;;;;;11.08;8.15;;;;;;;17.35;49.18;96372.64;1696084;85;21052;-71
2022/11/14 10:40:18;;;;;;;12.28;7.28;;;;;;;17.66;44.23;96372.00;1695749;85;21145;-70
2022/11/14 10:43:14;;;;;;;17.77;8.95;;;;;;;17.70;42.31;96377.66;1701012;84;21130;-71
2022/11/14 10:46:16;;;;;;;13.45;9.83;;;;;;;17.52;42.63;96368.95;1701469;84;21508;-71
2022/11/14 10:49:04;;;;;;;15.08;10.82;;;;;;;16.97;44.04;96380.08;1701254;84;21142;-70
2022/11/14 10:52:14;;;;;;;15.40;10.60;;;;;;;16.72;43.91;96379.92;1701483;84;21090;-69
2022/11/14 10:55:07;;;;;;;13.48;9.95;;;;;;;16.29;44.14;96386.51;1701434;84;20995;-69
2022/11/14 10:57:52;;;;;;;12.80;9.50;;;;;;;16.41;45.67;96379.50;1678474;84;20993;-69
2022/11/14 11:00:38;;;;;;;12.75;9.50;;;;;;;16.59;44.10;96378.95;1701628;84;21523;-69
2022/11/14 11:03:43;;;;;;;13.68;10.20;;;;;;;16.79;44.58;96373.52;1697737;84;21026;-69
2022/11/14 11:06:29;;;;;;;15.72;9.10;;;;;;;16.74;43.59;96372.30;1701606;84;21588;-71
2022/11/14 11:12:44;;;;;;;11.22;8.03;;;;;;;17.24;44.21;96360.53;1701573;84;21029;-70
2022/11/14 11:15:30;;;;;;;10.85;7.33;;;;;;;17.67;42.53;96359.09;1701565;84;21034;-70
2022/11/14 11:18:27;;;;;;;9.90;6.83;;;;;;;17.81;42.15;96353.29;1701890;84;21026;-70
2022/11/14 11:21:16;;;;;;;7.78;6.70;;;;;;;18.09;41.44;96353.65;1701810;84;21510;-70
2022/11/14 11:24:01;;;;;;;8.85;7.47;;;;;;;18.26;41.50;96352.57;1701452;84;21018;-70
2022/11/14 11:26:46;;;;;;;7.62;6.83;;;;;;;18.34;40.35;96351.85;1701844;84;21038;-70
2022/11/14 11:29:31;;;;;;;6.85;6.22;;;;;;;18.35;39.95;96345.56;1701512;84;21002;-71
2022/11/14 11:32:26;;;;;;;7.87;7.08;;;;;;;18.25;40.07;96349.51;1701656;84;21022;-69
2022/11/14 11:35:15;;;;;;;7.17;6.58;;;;;;;18.24;40.27;96350.89;1701690;84;21025;-71
2022/11/14 11:38:04;;;;;;;7.35;6.65;;;;;;;18.27;40.69;96344.09;1701414;84;21101;-71
2022/11/14 11:40:54;;;;;;;7.40;6.58;;;;;;;18.51;39.94;96340.98;1700772;83;21144;-71
2022/11/14 11:43:48;;;;;;;7.78;7.08;;;;;;;18.54;39.66;96336.84;1695794;84;21461;-71
2022/11/14 11:46:50;;;;;;;40.23;21.77;;;;;;;18.52;39.92;96342.27;1695596;85;21035;-71
2022/11/14 11:49:43;;;;;;;19.87;11.55;;;;;;;18.59;39.97;96343.75;1695961;85;21043;-70
2022/11/14 11:52:35;;;;;;;;;;;;;;;18.93;39.69;96346.50;1698424;85;21516;-71
2022/11/14 11:55:28;;;;;;;8.23;7.00;;;;;;;18.77;39.06;96344.00;1696076;84;20265;-69
2022/11/14 11:58:25;;;;;;;;;;;;;;;19.20;40.30;96346.30;1698385;85;21488;-70
2022/11/14 12:01:12;;;;;;;7.30;6.40;;;;;;;19.41;37.33;96338.75;1696374;85;20158;-69
2022/11/14 12:03:57;;;;;;;7.72;6.90;;;;;;;19.50;38.68;96334.80;1695998;85;21513;-70
2022/11/14 12:07:00;;;;;;;7.70;6.70;;;;;;;19.49;38.02;96333.55;1672894;85;21074;-69
2022/11/14 12:09:45;;;;;;;6.65;6.00;;;;;;;19.45;39.14;96335.46;1696086;85;21069;-69
2022/11/14 12:12:47;;;;;;;6.55;5.62;;;;;;;19.74;38.21;96335.61;1696133;85;21473;-70
2022/11/14 12:15:59;;;;;;;7.70;5.60;;;;;;;20.14;36.02;96325.84;1696151;85;21110;-69
2022/11/14 12:19:11;;;;;;;8.78;5.58;;;;;;;20.32;35.41;96322.31;1695922;85;21448;-71
2022/11/14 12:22:33;;;;;;;5.35;4.60;;;;;;;20.30;34.50;96319.30;1695995;85;21003;-71
2022/11/14 12:25:42;;;;;;;4.83;4.42;;;;;;;20.39;34.56;96318.89;1696669;85;21030;-71
2022/11/14 12:29:00;;;;;;;7.15;5.78;;;;;;;20.22;34.39;96310.28;1696031;85;21489;-72
2022/11/14 12:31:47;;;;;;;7.20;6.50;;;;;;;19.92;36.34;96319.21;1696184;85;21042;-72
2022/11/14 12:34:44;;;;;;;6.58;5.85;;;;;;;19.45;37.05;96318.97;1695829;85;21011;-72
2022/11/14 12:37:40;;;;;;;10.55;7.78;;;;;;;18.93;39.96;96319.76;1695992;85;21492;-73
2022/11/14 12:40:49;;;;;;;6.75;6.15;;;;;;;18.85;38.64;96315.62;1695765;85;21098;-71
2022/11/14 12:43:38;;;;;;;7.62;5.87;;;;;;;18.35;39.46;96311.30;1664679;86;21452;-70
2022/11/14 12:46:24;;;;;;;11.12;8.48;;;;;;;17.95;41.68;96314.97;1664489;86;21510;-70
2022/11/14 12:49:51;;;;;;;7.15;5.45;;;;;;;17.79;42.44;96314.20;1664386;86;21498;-69
2022/11/14 12:52:53;;;;;;;11.70;5.90;;;;;;;17.61;44.42;96317.05;1664558;86;21012;-69
2022/11/14 12:55:49;;;;;;;7.62;5.28;;;;;;;17.45;44.27;96313.58;1664668;86;21104;-68
2022/11/14 12:58:45;;;;;;;7.10;5.10;;;;;;;17.07;45.80;96310.88;1664464;86;21486;-70
2022/11/14 13:01:45;;;;;;;6.12;5.05;;;;;;;16.90;45.80;96314.55;1664320;86;21088;-69
2022/11/14 13:05:00;;;;;;;7.85;6.03;;;;;;;16.75;47.05;96310.53;1664373;86;21098;-70
2022/11/14 13:08:12;;;;;;;7.97;5.55;;;;;;;16.30;47.45;96309.22;1664550;86;21038;-70
2022/11/14 13:10:56;;;;;;;7.15;5.80;;;;;;;15.90;48.45;96312.16;1654924;86;21056;-69
2022/11/14 13:23:50;;;;;;;6.08;4.75;;;;;;;13.82;52.85;96316.17;1664350;86;21092;-70
2022/11/14 13:26:38;;;;;;;10.48;5.40;;;;;;;13.35;53.82;96312.17;1664862;86;21035;-70
2022/11/14 13:29:47;;;;;;;7.62;5.03;;;;;;;12.86;53.91;96315.63;1664417;86;21051;-70
2022/11/14 13:32:47;;;;;;;6.62;4.75;;;;;;;12.44;55.48;96321.13;1664630;86;21059;-70